Time;durP1;ratioP1;P1;durP2;ratioP2;P2;SDS_P1;SDS_P2;PMS_P1;PMS_P2;Temp;Humidity;BMP_temperature;BMP_pressure;BME280_temperature;BME280_humidity;BME280_pressure;Samples;Min_cycle;Max_cycle;Signal;HPM_P1;HPM_P2
2023/10/09 00:01:44;;;;;;;12.05;6.13;;;;;;;11.27;100.00;97054.41;6309907;22;19999;-75
2023/10/09 00:04:11;;;;;;;10.60;6.05;;;;;;;11.25;100.00;97050.19;6310066;22;20022;-75
2023/10/09 00:06:37;;;;;;;9.73;6.15;;;;;;;11.21;100.00;97054.00;6310363;22;20405;-76
2023/10/09 00:09:17;;;;;;;13.48;6.38;;;;;;;11.20;100.00;97052.34;6310354;22;20041;-75
2023/10/09 00:11:44;;;;;;;16.45;6.57;;;;;;;11.19;100.00;97056.75;6309943;22;20007;-76
2023/10/09 00:14:10;;;;;;;17.23;6.63;;;;;;;11.15;100.00;97058.75;6310411;22;20349;-75
2023/10/09 00:16:43;;;;;;;11.50;6.95;;;;;;;11.14;100.00;97059.72;6283112;22;20007;-76
2023/10/09 00:19:19;;;;;;;10.75;6.40;;;;;;;11.13;100.00;97063.31;6310887;22;20004;-76
2023/10/09 00:21:48;;;;;;;12.50;7.28;;;;;;;11.11;100.00;97062.56;6309818;22;20003;-76
2023/10/09 00:24:21;;;;;;;15.70;7.63;;;;;;;11.06;100.00;97059.44;6310384;22;20451;-76
2023/10/09 00:26:47;;;;;;;11.93;6.95;;;;;;;11.03;100.00;97051.75;6282723;22;20269;-75
2023/10/09 00:29:21;;;;;;;11.98;6.80;;;;;;;11.03;100.00;97060.50;6308494;22;19995;-75
2023/10/09 00:31:51;;;;;;;10.23;6.28;;;;;;;11.04;100.00;97056.06;6309611;22;20021;-75
2023/10/09 00:34:19;;;;;;;12.68;6.70;;;;;;;11.05;100.00;97057.75;6310152;22;20003;-75
2023/10/09 00:36:51;;;;;;;14.63;7.32;;;;;;;11.04;100.00;97053.44;6309483;22;20444;-75
2023/10/09 00:39:41;;;;;;;16.60;7.40;;;;;;;10.99;100.00;97050.31;6310015;22;20006;-75
2023/10/09 00:42:07;;;;;;;13.35;6.78;;;;;;;10.95;100.00;97048.84;6308950;22;20273;-76
2023/10/09 00:44:40;;;;;;;8.93;6.35;;;;;;;10.92;100.00;97046.41;6309929;22;20457;-76
2023/10/09 00:47:26;;;;;;;11.90;7.07;;;;;;;10.92;100.00;97043.78;6308891;22;19995;-75
2023/10/09 00:50:08;;;;;;;11.70;7.38;;;;;;;10.89;100.00;97040.41;6283223;22;20338;-75
2023/10/09 00:52:39;;;;;;;18.75;6.63;;;;;;;10.86;100.00;97040.63;6309484;22;20013;-75
2023/10/09 00:55:13;;;;;;;12.98;6.65;;;;;;;10.82;100.00;97036.53;6309777;22;20098;-75
2023/10/09 00:57:42;;;;;;;10.70;6.50;;;;;;;10.81;100.00;97039.28;6309155;22;20008;-76
2023/10/09 01:00:24;;;;;;;13.35;7.20;;;;;;;10.81;100.00;97034.88;6310109;22;20390;-75
2023/10/09 01:03:10;;;;;;;15.27;7.50;;;;;;;10.81;100.00;97034.88;6308790;22;20015;-75
2023/10/09 01:05:36;;;;;;;;;;;;;;;10.80;100.00;97030.53;6310081;22;20039;-75
2023/10/09 01:08:08;;;;;;;11.68;6.75;;;;;;;10.79;100.00;97028.00;6308180;22;19903;-75
2023/10/09 01:10:50;;;;;;;14.80;8.35;;;;;;;10.79;100.00;97020.97;6308603;22;20010;-76
2023/10/09 01:13:18;;;;;;;12.00;6.43;;;;;;;10.78;100.00;97021.91;6309714;22;19999;-75
2023/10/09 01:15:44;;;;;;;12.25;7.15;;;;;;;10.79;100.00;97020.09;6308956;22;19999;-75
2023/10/09 01:18:10;;;;;;;13.93;6.88;;;;;;;10.78;100.00;97016.66;6309569;22;20353;-75
2023/10/09 01:20:41;;;;;;;13.48;7.05;;;;;;;10.77;100.00;97016.75;6309665;22;20068;-75
2023/10/09 01:23:12;;;;;;;15.52;7.07;;;;;;;10.78;100.00;97014.00;6309728;22;19999;-75
2023/10/09 01:25:45;;;;;;;16.40;6.88;;;;;;;10.78;100.00;97011.38;6309771;22;19999;-76
2023/10/09 01:28:15;;;;;;;9.40;6.63;;;;;;;10.72;100.00;97010.03;6309295;22;20021;-76
2023/10/09 01:30:41;;;;;;;12.77;8.10;;;;;;;10.69;100.00;97012.88;6309553;22;20321;-75
2023/10/09 01:33:24;;;;;;;12.82;6.65;;;;;;;10.66;100.00;97015.75;6282096;22;19998;-75
2023/10/09 01:35:56;;;;;;;13.93;6.95;;;;;;;10.70;100.00;97011.06;6285919;22;20007;-76
2023/10/09 01:38:31;;;;;;;13.88;6.43;;;;;;;10.73;100.00;97006.44;6311320;22;19995;-75
2023/10/09 01:41:04;;;;;;;16.75;6.65;;;;;;;10.73;100.00;96998.53;6311369;22;20070;-75
2023/10/09 01:43:34;;;;;;;13.48;6.85;;;;;;;10.70;100.00;97006.66;6310756;22;19995;-76
2023/10/09 01:46:01;;;;;;;15.80;7.43;;;;;;;10.68;100.00;96999.81;6311723;22;19999;-75
2023/10/09 01:48:26;;;;;;;11.52;6.75;;;;;;;10.66;100.00;97009.63;6311614;22;20009;-75
2023/10/09 01:50:53;;;;;;;10.93;6.45;;;;;;;10.60;100.00;97003.00;6311449;22;20026;-76
2023/10/09 01:53:27;;;;;;;11.38;6.50;;;;;;;10.60;100.00;97005.63;6311623;22;20010;-75
2023/10/09 01:55:55;;;;;;;14.82;6.72;;;;;;;10.58;100.00;97005.75;6311505;22;20061;-75
2023/10/09 02:00:49;;;;;;;10.48;6.45;;;;;;;10.58;100.00;97003.13;6311937;22;20386;-76
2023/10/09 02:03:15;;;;;;;12.10;6.88;;;;;;;10.57;100.00;97001.44;6311588;22;20408;-75
2023/10/09 02:05:42;;;;;;;17.00;7.28;;;;;;;10.56;100.00;97005.03;6311908;22;20022;-75
2023/10/09 02:08:12;;;;;;;13.77;6.78;;;;;;;10.53;100.00;97004.38;6311232;22;19999;-75
2023/10/09 02:10:47;;;;;;;14.90;7.70;;;;;;;10.45;100.00;97004.94;6284555;22;20006;-75
2023/10/09 02:13:16;;;;;;;18.80;7.93;;;;;;;10.43;100.00;96998.94;6311436;22;20003;-75
2023/10/09 02:23:30;;;;;;;14.98;7.07;;;;;;;10.41;100.00;96995.56;6311658;22;20082;-76
2023/10/09 02:26:04;;;;;;;11.13;7.45;;;;;;;10.42;100.00;97005.16;6311214;22;20317;-76
2023/10/09 02:28:33;;;;;;;13.13;6.68;;;;;;;10.38;100.00;97001.03;6311636;22;19995;-75
2023/10/09 02:31:09;;;;;;;18.20;7.40;;;;;;;10.34;100.00;97007.47;6285227;22;20420;-75
2023/10/09 02:33:36;;;;;;;13.40;7.40;;;;;;;10.30;100.00;96999.78;6284654;22;20007;-76
2023/10/09 02:36:06;;;;;;;12.95;6.70;;;;;;;10.30;100.00;97005.06;6310887;22;20003;-75
2023/10/09 02:38:40;;;;;;;14.25;6.78;;;;;;;10.30;100.00;96999.78;6311163;22;19995;-75
2023/10/09 02:43:47;;;;;;;13.90;6.50;;;;;;;10.28;100.00;96998.19;6310943;22;20006;-76
2023/10/09 02:46:20;;;;;;;15.23;7.07;;;;;;;10.25;100.00;97007.13;6311354;22;20143;-76
2023/10/09 02:48:53;;;;;;;10.48;6.60;;;;;;;10.22;100.00;97010.00;6310833;22;19995;-75
2023/10/09 02:53:55;;;;;;;12.13;7.57;;;;;;;10.17;100.00;97014.75;6311429;22;19999;-76
2023/10/09 02:56:24;;;;;;;10.15;6.88;;;;;;;10.17;100.00;97014.75;6311334;22;20398;-75
2023/10/09 02:58:53;;;;;;;12.68;6.93;;;;;;;10.19;100.00;97007.59;6311413;22;20385;-76
2023/10/09 03:01:19;;;;;;;10.35;6.47;;;;;;;10.14;100.00;97012.31;6311154;22;19995;-76
2023/10/09 03:03:48;;;;;;;12.30;7.32;;;;;;;10.13;100.00;97013.28;6310798;22;20487;-76
2023/10/09 03:06:19;;;;;;;13.07;7.03;;;;;;;10.14;100.00;97007.88;6310837;22;19992;-75
2023/10/09 03:08:47;;;;;;;15.95;7.32;;;;;;;10.16;100.00;97006.00;6311144;22;19996;-75
2023/10/09 03:11:13;;;;;;;12.73;6.57;;;;;;;10.16;100.00;97016.53;6311133;22;20044;-75
2023/10/09 03:13:44;;;;;;;13.30;6.53;;;;;;;10.14;100.00;97009.69;6283525;22;19995;-75
2023/10/09 03:16:18;;;;;;;11.60;6.75;;;;;;;10.12;100.00;97016.84;6310886;22;20006;-75
2023/10/09 03:18:46;;;;;;;12.40;6.90;;;;;;;10.11;100.00;97010.75;6286079;22;20309;-76
2023/10/09 03:21:14;;;;;;;14.85;6.82;;;;;;;10.12;100.00;97009.78;6310854;22;20010;-75
2023/10/09 03:23:40;;;;;;;15.30;8.38;;;;;;;10.12;100.00;97011.59;6284679;22;19999;-75
2023/10/09 03:26:05;;;;;;;14.20;7.22;;;;;;;10.07;100.00;97013.72;6310528;22;20302;-75
2023/10/09 03:28:31;;;;;;;16.88;7.65;;;;;;;10.02;100.00;97009.59;6310642;22;20057;-75
2023/10/09 03:30:59;;;;;;;14.07;7.50;;;;;;;10.03;100.00;97008.63;6311037;22;20010;-75
2023/10/09 03:33:25;;;;;;;14.23;7.53;;;;;;;10.01;100.00;97010.53;6310773;22;20377;-75
2023/10/09 03:35:50;;;;;;;11.70;6.95;;;;;;;10.02;100.00;97009.59;6310636;22;19999;-75
2023/10/09 03:38:18;;;;;;;11.77;6.90;;;;;;;10.02;100.00;97006.97;6283893;22;20007;-75
2023/10/09 03:40:47;;;;;;;22.65;7.07;;;;;;;10.02;100.00;97009.59;6310304;22;19994;-75
2023/10/09 03:43:16;;;;;;;11.32;6.88;;;;;;;10.04;100.00;97014.75;6284322;22;19995;-76
2023/10/09 03:45:54;;;;;;;10.20;6.35;;;;;;;10.07;100.00;97016.34;6283283;22;20003;-76
2023/10/09 03:48:26;;;;;;;10.32;6.60;;;;;;;10.06;100.00;97007.59;6311093;22;20002;-75
2023/10/09 03:51:08;;;;;;;16.15;7.20;;;;;;;10.04;100.00;97009.50;6282908;22;20042;-75
2023/10/09 03:53:39;;;;;;;12.07;6.90;;;;;;;10.02;100.00;97008.75;6310775;22;20001;-75
2023/10/09 03:56:11;;;;;;;11.88;6.90;;;;;;;10.07;100.00;97011.09;6283063;22;20073;-75
2023/10/09 03:58:44;;;;;;;15.13;7.03;;;;;;;10.02;100.00;97003.50;6310058;22;20006;-75
2023/10/09 04:03:54;;;;;;;8.93;6.60;;;;;;;9.98;100.00;97000.22;6309369;22;20077;-75
2023/10/09 04:06:23;;;;;;;8.45;6.30;;;;;;;9.97;100.00;97006.44;6310663;22;20043;-75
2023/10/09 04:08:51;;;;;;;14.65;6.75;;;;;;;9.97;100.00;97006.44;6310431;22;20006;-75
2023/10/09 04:11:16;;;;;;;11.70;6.63;;;;;;;9.97;100.00;96995.91;6309820;22;20124;-75
2023/10/09 04:13:46;;;;;;;11.60;6.80;;;;;;;9.97;100.00;97001.19;6309345;22;20013;-75
2023/10/09 04:18:57;;;;;;;14.68;6.28;;;;;;;9.93;100.00;97004.13;6310488;22;20003;-75
2023/10/09 04:24:08;;;;;;;11.13;7.53;;;;;;;9.94;100.00;96998.75;6310247;22;20014;-75
2023/10/09 04:26:34;;;;;;;12.70;6.97;;;;;;;9.94;100.00;97000.53;6310179;22;19995;-75
2023/10/09 04:29:02;;;;;;;13.00;6.55;;;;;;;9.90;100.00;97002.56;6282597;22;20032;-75
2023/10/09 04:31:31;;;;;;;15.60;6.32;;;;;;;9.88;100.00;96993.94;6309759;22;19999;-75
2023/10/09 04:36:56;;;;;;;15.30;6.22;;;;;;;9.83;100.00;97002.13;6310282;22;20446;-74
2023/10/09 04:47:38;;;;;;;14.18;6.47;;;;;;;9.81;100.00;97004.03;6309846;22;20090;-75
2023/10/09 04:50:11;;;;;;;11.68;6.88;;;;;;;9.80;100.00;96996.22;6310283;22;20003;-74
2023/10/09 05:03:12;;;;;;;13.07;7.45;;;;;;;9.69;100.00;97005.72;6310074;22;20047;-77
2023/10/09 05:05:48;;;;;;;13.57;6.80;;;;;;;9.72;100.00;97008.13;6308979;22;20063;-78
2023/10/09 05:08:19;;;;;;;13.57;6.68;;;;;;;9.72;100.00;97004.63;6309967;22;20070;-77
2023/10/09 05:16:15;;;;;;;13.52;7.38;;;;;;;9.66;100.00;97016.44;6312648;22;20007;-77
2023/10/09 05:18:42;;;;;;;13.88;7.03;;;;;;;9.63;100.00;97010.53;6313490;22;19995;-77
2023/10/09 05:23:48;;;;;;;16.42;7.68;;;;;;;9.63;100.00;97021.06;6313635;22;20007;-77
2023/10/09 05:34:33;;;;;;;;;;;;;;;9.56;100.00;97012.72;6313638;22;20007;-77
2023/10/09 05:37:22;;;;;;;12.40;6.82;;;;;;;9.55;100.00;97024.19;6312739;22;19953;-77
2023/10/09 05:42:42;;;;;;;19.75;8.70;;;;;;;9.52;100.00;97035.78;6312471;22;20003;-77
2023/10/09 05:47:57;;;;;;;13.10;7.07;;;;;;;9.52;100.00;97035.78;6311934;22;20010;-77
2023/10/09 05:53:04;;;;;;;11.73;7.30;;;;;;;9.50;100.00;97027.13;6311623;22;20002;-77
2023/10/09 06:04:12;;;;;;;12.80;7.03;;;;;;;9.53;100.00;97000.66;6310618;22;20033;-77
2023/10/09 06:06:44;;;;;;;13.77;7.78;;;;;;;9.56;100.00;97000.44;6312204;22;20111;-76
2023/10/09 06:11:41;;;;;;;18.08;7.65;;;;;;;9.59;100.00;97009.88;6312408;22;20007;-78
2023/10/09 06:19:26;;;;;;;11.90;7.97;;;;;;;9.69;100.00;97010.09;6313192;22;20010;-77
2023/10/09 06:24:25;;;;;;;18.33;8.20;;;;;;;9.67;100.00;97015.50;6308858;22;20009;-77
2023/10/09 06:29:36;;;;;;;17.08;8.45;;;;;;;9.71;100.00;97035.38;6310964;22;20007;-77
2023/10/09 06:34:51;;;;;;;16.27;7.65;;;;;;;9.84;100.00;97032.75;6310007;22;20003;-77
2023/10/09 06:45:28;;;;;;;18.05;8.75;;;;;;;10.00;100.00;97042.22;6310861;22;20007;-77
2023/10/09 06:48:09;;;;;;;18.02;8.43;;;;;;;10.06;100.00;97043.56;6310891;22;19999;-77
2023/10/09 06:53:19;;;;;;;14.50;8.73;;;;;;;10.11;100.00;97037.06;6310579;22;20014;-77
2023/10/09 06:55:48;;;;;;;17.50;8.10;;;;;;;10.16;100.00;97034.13;6309536;22;20004;-77
2023/10/09 06:58:27;;;;;;;17.05;8.80;;;;;;;10.16;100.00;97034.13;6310159;22;20013;-77
2023/10/09 07:03:51;;;;;;;18.27;8.60;;;;;;;10.21;100.00;97042.53;6309721;22;20041;-77
2023/10/09 07:06:24;;;;;;;15.65;8.00;;;;;;;10.27;100.00;97036.00;6282675;22;19999;-77
2023/10/09 07:16:59;;;;;;;19.92;7.85;;;;;;;10.35;100.00;97051.25;6310043;22;20419;-78
2023/10/09 07:22:03;;;;;;;16.17;8.73;;;;;;;10.42;100.00;97055.16;6307768;22;20010;-75
2023/10/09 07:24:43;;;;;;;16.80;7.82;;;;;;;10.46;100.00;97054.00;6309884;22;19999;-75
2023/10/09 07:27:14;;;;;;;14.23;8.60;;;;;;;10.52;100.00;97056.22;6282679;22;19999;-76
2023/10/09 07:29:49;;;;;;;17.27;8.25;;;;;;;10.56;100.00;97060.31;6309364;22;20006;-74
2023/10/09 07:32:20;;;;;;;17.58;7.85;;;;;;;10.62;100.00;97063.47;6309066;22;20318;-74
2023/10/09 07:35:40;;;;;;;17.40;8.73;;;;;;;10.67;100.00;97062.19;6309024;22;20004;-76
2023/10/09 07:38:02;;;;;;;21.38;8.32;;;;;;;10.71;100.00;97055.75;6309346;22;20078;-74
2023/10/09 07:40:31;;;;;;;16.23;8.20;;;;;;;10.80;100.00;97059.53;6309063;22;20003;-75
2023/10/09 07:43:04;;;;;;;22.40;7.75;;;;;;;10.93;100.00;97056.84;6309259;22;20173;-74
2023/10/09 07:48:04;;;;;;;14.07;7.57;;;;;;;11.28;100.00;97055.22;6310013;22;20007;-75
2023/10/09 07:50:48;;;;;;;11.02;7.38;;;;;;;11.45;100.00;97048.69;6309321;22;20069;-75
2023/10/09 07:53:25;;;;;;;17.10;7.78;;;;;;;11.65;100.00;97049.00;6309863;22;19999;-74
2023/10/09 07:55:55;;;;;;;13.55;8.05;;;;;;;11.87;100.00;97050.88;6309235;22;20007;-75
2023/10/09 07:58:28;;;;;;;17.45;8.02;;;;;;;12.07;100.00;97049.38;6283503;22;20018;-75
2023/10/09 08:03:32;;;;;;;13.75;7.38;;;;;;;12.32;100.00;97050.13;6308364;22;20015;-75
2023/10/09 08:06:29;;;;;;;15.60;7.15;;;;;;;12.44;100.00;97056.25;6281128;22;20594;-75
2023/10/09 08:09:17;;;;;;;16.90;7.72;;;;;;;12.61;100.00;97062.88;6309600;22;20037;-74
2023/10/09 08:16:47;;;;;;;11.32;5.90;;;;;;;13.12;100.00;97066.72;6309490;22;20010;-75
2023/10/09 08:24:56;;;;;;;15.13;6.38;;;;;;;13.54;100.00;97054.59;6284371;22;20014;-75
2023/10/09 08:30:28;;;;;;;12.23;6.85;;;;;;;13.81;100.00;97050.59;6308998;22;20026;-75
2023/10/09 08:33:03;;;;;;;12.15;6.70;;;;;;;13.92;100.00;97047.91;6309868;22;19999;-75
2023/10/09 08:35:46;;;;;;;;;;;;;;;14.13;100.00;97055.00;6309743;22;20003;-75
2023/10/09 08:38:11;;;;;;;12.68;6.22;;;;;;;14.32;100.00;97059.53;6309981;22;19921;-75
2023/10/09 08:40:39;;;;;;;14.30;6.28;;;;;;;14.50;100.00;97059.78;6281887;22;20026;-75
2023/10/09 08:43:16;;;;;;;13.98;6.60;;;;;;;14.60;100.00;97052.72;6308894;22;19999;-75
2023/10/09 08:45:45;;;;;;;10.80;6.30;;;;;;;14.75;100.00;97055.03;6308788;22;20003;-74
2023/10/09 08:48:26;;;;;;;12.00;5.78;;;;;;;14.92;100.00;97048.22;6309137;22;20218;-76
2023/10/09 08:50:54;;;;;;;9.02;5.80;;;;;;;15.04;100.00;97046.31;6309079;22;20087;-76
2023/10/09 08:53:20;;;;;;;15.57;9.43;;;;;;;15.11;100.00;97030.69;6308574;22;20404;-75
2023/10/09 08:55:46;;;;;;;16.58;10.13;;;;;;;15.16;100.00;97017.84;6309186;22;20057;-75
2023/10/09 09:01:00;;;;;;;14.68;9.07;;;;;;;15.38;100.00;96976.94;6308192;22;20015;-76
2023/10/09 09:03:26;;;;;;;14.90;7.35;;;;;;;15.46;100.00;96985.03;6308964;22;20043;-76
2023/10/09 09:06:03;;;;;;;14.82;6.45;;;;;;;15.59;100.00;96984.72;6309710;22;20070;-76
2023/10/09 09:08:31;;;;;;;20.10;7.00;;;;;;;15.69;100.00;97005.09;6282635;22;20023;-76
2023/10/09 09:11:08;;;;;;;14.65;5.80;;;;;;;15.76;100.00;97015.03;6308915;22;20003;-76
2023/10/09 09:13:34;;;;;;;12.05;5.35;;;;;;;15.85;100.00;97007.19;6309330;22;20004;-76
2023/10/09 09:15:59;;;;;;;19.23;6.18;;;;;;;15.94;100.00;96979.78;6309017;22;20078;-76
2023/10/09 09:18:31;;;;;;;12.20;5.47;;;;;;;16.00;100.00;96960.63;6309680;22;19999;-76
2023/10/09 09:20:57;;;;;;;11.90;5.85;;;;;;;16.10;100.00;96959.78;6308642;22;20074;-76
2023/10/09 09:23:23;;;;;;;10.60;5.78;;;;;;;16.19;100.00;96948.25;6308811;22;20003;-76
2023/10/09 09:25:58;;;;;;;10.52;5.60;;;;;;;16.25;100.00;96930.91;6281812;22;20424;-76
2023/10/09 09:28:26;;;;;;;8.15;5.38;;;;;;;16.32;100.00;96921.34;6308751;22;20054;-76
2023/10/09 09:30:53;;;;;;;14.13;5.80;;;;;;;16.42;100.00;96922.13;6308716;22;20053;-76
2023/10/09 09:33:53;;;;;;;10.48;5.68;;;;;;;16.56;100.00;96919.94;6308738;22;20423;-76
2023/10/09 09:36:14;;;;;;;12.70;5.70;;;;;;;16.70;100.00;96924.75;6307792;22;20090;-76
2023/10/09 09:38:47;;;;;;;12.05;5.50;;;;;;;16.75;100.00;96933.13;6308575;22;20066;-76
2023/10/09 09:41:23;;;;;;;13.13;5.70;;;;;;;16.83;100.00;96927.03;6308408;22;20370;-76
2023/10/09 09:43:52;;;;;;;16.55;5.50;;;;;;;16.96;100.00;96953.25;6308810;22;20003;-76
2023/10/09 09:46:19;;;;;;;13.52;5.70;;;;;;;17.10;100.00;96951.94;6281653;22;20002;-76
2023/10/09 09:48:47;;;;;;;12.13;5.95;;;;;;;17.22;100.00;96965.03;6308806;22;20405;-76
2023/10/09 09:51:17;;;;;;;14.15;5.70;;;;;;;17.33;100.00;96956.78;6308821;22;20077;-76
2023/10/09 09:53:48;;;;;;;12.82;5.80;;;;;;;17.48;100.00;96938.47;6309032;22;19995;-76
2023/10/09 09:56:17;;;;;;;11.60;6.32;;;;;;;17.63;100.00;96909.44;6309379;22;20072;-76
2023/10/09 09:58:53;;;;;;;15.27;6.72;;;;;;;17.75;100.00;96908.16;6309583;22;19999;-76
2023/10/09 10:01:27;;;;;;;14.10;5.60;;;;;;;17.85;100.00;96908.06;6309320;22;20101;-76
2023/10/09 10:04:05;;;;;;;12.20;5.63;;;;;;;17.98;100.00;96912.13;6253968;22;20094;-76
2023/10/09 10:06:33;;;;;;;13.85;6.40;;;;;;;18.07;100.00;96916.53;6278429;22;20043;-76
2023/10/09 10:08:59;;;;;;;14.57;5.85;;;;;;;18.19;100.00;96895.75;6277347;22;20006;-76
2023/10/09 10:11:44;;;;;;;15.57;5.63;;;;;;;18.24;100.00;96904.13;6278898;22;19996;-76
2023/10/09 10:14:11;;;;;;;12.05;5.50;;;;;;;18.26;100.00;96926.13;6280104;22;20019;-76
2023/10/09 10:17:29;;;;;;;15.15;5.88;;;;;;;18.39;100.00;96914.16;6278694;22;20088;-76
2023/10/09 10:22:47;;;;;;;14.27;5.68;;;;;;;18.46;100.00;96905.34;6280530;22;20103;-76
2023/10/09 10:25:35;;;;;;;9.07;5.40;;;;;;;18.59;100.00;96917.41;6280161;22;20004;-75
2023/10/09 10:28:38;;;;;;;10.40;5.22;;;;;;;18.79;100.00;96912.59;6280148;22;20007;-76
2023/10/09 10:31:09;;;;;;;12.40;5.57;;;;;;;18.87;100.00;96912.59;6248189;22;19999;-75
2023/10/09 10:33:56;;;;;;;8.68;5.40;;;;;;;18.95;100.00;96892.28;6280008;22;19995;-76
2023/10/09 10:36:26;;;;;;;14.60;5.72;;;;;;;19.09;100.00;96890.81;6280025;22;20010;-76
2023/10/09 10:39:20;;;;;;;12.50;5.53;;;;;;;19.22;100.00;96876.97;6279815;22;19999;-76
2023/10/09 10:41:57;;;;;;;9.75;4.95;;;;;;;19.27;100.00;96862.13;6279691;22;20413;-76
2023/10/09 10:44:33;;;;;;;13.75;5.07;;;;;;;19.38;100.00;96860.94;6279877;22;19999;-76
2023/10/09 10:46:59;;;;;;;12.32;6.53;;;;;;;19.50;100.00;96865.91;6280606;22;20083;-76
2023/10/09 10:49:36;;;;;;;12.77;5.57;;;;;;;19.64;100.00;96867.06;6280242;22;20398;-76
2023/10/09 10:52:15;;;;;;;13.45;5.80;;;;;;;19.73;100.00;96850.03;6277870;22;19999;-77
2023/10/09 10:57:28;;;;;;;8.30;5.60;;;;;;;19.94;100.00;96843.31;6278769;22;20069;-76
2023/10/09 11:00:12;;;;;;;9.82;5.32;;;;;;;20.03;100.00;96843.09;6278531;22;20000;-74
2023/10/09 11:02:40;;;;;;;11.25;5.60;;;;;;;20.14;100.00;96838.34;6284519;22;20094;-74
2023/10/09 11:05:23;;;;;;;16.45;5.88;;;;;;;20.27;100.00;96838.63;6310325;22;20321;-76
2023/10/09 11:07:52;;;;;;;20.70;6.15;;;;;;;20.51;100.00;96828.81;6310669;22;20070;-76
2023/10/09 11:10:28;;;;;;;15.98;5.78;;;;;;;20.66;100.00;96826.19;6282786;22;20439;-76
2023/10/09 11:28:56;;;;;;;9.77;5.32;;;;;;;21.10;100.00;96813.97;6310885;22;20014;-76
2023/10/09 11:31:22;;;;;;;16.50;5.47;;;;;;;21.23;100.00;96807.19;6310025;22;20014;-76
2023/10/09 11:33:52;;;;;;;14.07;5.22;;;;;;;21.31;100.00;96812.44;6309200;22;20458;-76
2023/10/09 11:36:31;;;;;;;13.32;5.70;;;;;;;21.36;100.00;96801.19;6310102;22;19999;-76
2023/10/09 11:39:13;;;;;;;14.73;5.78;;;;;;;21.40;100.00;96800.66;6309704;22;19999;-74
2023/10/09 11:41:42;;;;;;;18.80;5.97;;;;;;;21.42;100.00;96801.31;6308872;22;20462;-77
2023/10/09 11:44:18;;;;;;;18.85;5.78;;;;;;;21.46;100.00;96799.91;6309980;22;20023;-75
2023/10/09 11:52:45;;;;;;;13.90;5.55;;;;;;;21.51;100.00;96790.50;6309570;22;20075;-77
2023/10/09 11:55:16;;;;;;;13.40;5.65;;;;;;;21.60;100.00;96790.22;6309728;22;20014;-76
2023/10/09 11:57:42;;;;;;;20.05;5.38;;;;;;;21.75;100.00;96784.88;6309548;22;20483;-77
2023/10/09 12:00:24;;;;;;;14.18;5.32;;;;;;;21.86;100.00;96782.75;6309919;22;20064;-76
2023/10/09 12:02:49;;;;;;;14.80;4.95;;;;;;;21.91;100.00;96782.19;6307206;22;20019;-76
2023/10/09 12:05:16;;;;;;;14.60;5.55;;;;;;;21.97;100.00;96779.56;6309806;22;20169;-77
2023/10/09 12:07:44;;;;;;;13.18;5.32;;;;;;;21.96;100.00;96769.88;6282707;22;20409;-76
2023/10/09 12:10:10;;;;;;;15.80;5.13;;;;;;;22.07;100.00;96768.56;6309890;22;19999;-77
2023/10/09 12:12:35;;;;;;;14.82;5.90;;;;;;;22.18;100.00;96762.72;6308781;22;19999;-77
2023/10/09 12:15:05;;;;;;;12.35;5.55;;;;;;;22.27;100.00;96754.53;6309664;22;20014;-74
2023/10/09 12:17:30;;;;;;;12.13;5.22;;;;;;;22.34;100.00;96763.50;6309479;22;20006;-75
2023/10/09 12:19:56;;;;;;;14.18;5.95;;;;;;;22.40;100.00;96749.31;6310497;22;20074;-75
2023/10/09 12:22:22;;;;;;;13.73;5.65;;;;;;;22.50;100.00;96749.03;6307890;22;20320;-75
2023/10/09 12:24:47;;;;;;;12.73;5.30;;;;;;;22.52;100.00;96755.03;6309802;22;20010;-74
2023/10/09 12:27:13;;;;;;;16.42;5.13;;;;;;;22.59;100.00;96755.94;6309523;22;20030;-74
2023/10/09 12:29:44;;;;;;;15.98;5.10;;;;;;;22.73;100.00;96748.81;6309521;22;19998;-75
2023/10/09 12:32:11;;;;;;;16.10;5.40;;;;;;;22.81;100.00;96745.16;6309180;22;19995;-74
2023/10/09 12:34:38;;;;;;;18.50;5.60;;;;;;;22.87;100.00;96739.00;6308973;22;20002;-75
2023/10/09 12:37:04;;;;;;;16.23;5.70;;;;;;;22.92;100.00;96738.44;6308339;22;20014;-77
2023/10/09 12:39:33;;;;;;;11.63;5.45;;;;;;;22.95;100.00;96734.53;6309696;22;20006;-77
2023/10/09 12:42:11;;;;;;;11.95;5.78;;;;;;;22.95;100.00;96737.22;6308790;22;20082;-77
2023/10/09 12:44:40;;;;;;;11.32;6.00;;;;;;;22.96;100.00;96730.84;6308936;22;20426;-77
2023/10/09 12:47:06;;;;;;;17.70;6.20;;;;;;;22.95;100.00;96726.50;6308608;22;19995;-77
2023/10/09 12:49:32;;;;;;;12.10;5.68;;;;;;;22.93;100.00;96723.19;6309762;22;19995;-77
2023/10/09 12:51:58;;;;;;;17.98;7.10;;;;;;;22.95;100.00;96727.31;6281618;22;20057;-77
2023/10/09 12:54:27;;;;;;;13.88;7.32;;;;;;;23.10;100.00;96724.53;6282915;22;20003;-77
2023/10/09 12:56:57;;;;;;;16.17;7.68;;;;;;;23.16;100.00;96723.75;6308526;22;19999;-77
2023/10/09 12:59:24;;;;;;;17.73;8.18;;;;;;;23.21;100.00;96730.38;6308920;22;20018;-77
2023/10/09 13:01:52;;;;;;;17.30;7.28;;;;;;;23.27;100.00;96719.72;6308261;22;20102;-77
2023/10/09 13:04:22;;;;;;;15.25;7.03;;;;;;;23.24;100.00;96716.56;6307681;22;20019;-77
2023/10/09 13:06:51;;;;;;;15.95;5.88;;;;;;;23.25;100.00;96716.41;6309059;22;20018;-79
2023/10/09 13:12:17;;;;;;;8.93;5.38;;;;;;;23.50;100.00;96712.38;6301012;22;20011;-77
2023/10/09 13:14:43;;;;;;;13.35;5.22;;;;;;;23.62;100.00;96710.78;6309118;22;19995;-78
2023/10/09 13:17:10;;;;;;;14.35;5.70;;;;;;;23.72;100.00;96711.25;6309138;22;20297;-77
2023/10/09 13:19:35;;;;;;;10.15;5.47;;;;;;;23.80;100.00;96709.44;6308978;22;20013;-77
2023/10/09 13:22:03;;;;;;;19.75;5.53;;;;;;;23.82;100.00;96699.28;6308596;22;20022;-76
2023/10/09 13:24:30;;;;;;;10.55;4.80;;;;;;;23.88;100.00;96706.53;6282114;22;20197;-78
2023/10/09 13:26:58;;;;;;;18.63;5.65;;;;;;;24.07;100.00;96702.28;6281843;22;20014;-77
2023/10/09 13:29:24;;;;;;;13.05;5.40;;;;;;;24.15;100.00;96698.56;6308987;22;19999;-77
2023/10/09 13:31:52;;;;;;;15.40;5.65;;;;;;;24.27;100.00;96691.56;6308926;22;19999;-77
2023/10/09 13:34:18;;;;;;;14.25;5.53;;;;;;;24.54;100.00;96678.13;6310858;22;19999;-78
2023/10/09 13:36:52;;;;;;;20.02;5.90;;;;;;;24.67;100.00;96682.69;6283151;22;20014;-77
2023/10/09 13:39:25;;;;;;;14.10;4.97;;;;;;;24.77;100.00;96682.31;6311467;22;20001;-78
2023/10/09 13:41:58;;;;;;;9.75;5.22;;;;;;;24.84;100.00;96675.03;6310203;22;20007;-77
2023/10/09 13:44:34;;;;;;;12.57;4.82;;;;;;;25.02;100.00;96666.31;6311702;22;19995;-78
2023/10/09 13:47:01;;;;;;;13.80;5.72;;;;;;;25.13;100.00;96662.16;6311073;22;19995;-77
2023/10/09 13:49:29;;;;;;;12.90;5.18;;;;;;;25.24;100.00;96659.84;6284739;22;20003;-77
2023/10/09 13:51:59;;;;;;;15.10;5.32;;;;;;;25.49;100.00;96653.78;6310132;22;20022;-77
2023/10/09 13:56:58;;;;;;;16.42;5.65;;;;;;;25.65;100.00;96647.09;6310887;22;20401;-77
2023/10/09 13:59:27;;;;;;;10.75;4.75;;;;;;;25.62;100.00;96645.63;6311383;22;20461;-78
2023/10/09 14:01:56;;;;;;;13.43;5.45;;;;;;;25.72;100.00;96651.38;6310427;22;20028;-77
2023/10/09 14:04:23;;;;;;;17.30;5.05;;;;;;;25.83;100.00;96643.66;6310951;22;20012;-77
2023/10/09 14:06:51;;;;;;;13.90;5.10;;;;;;;26.00;100.00;96641.28;6283991;22;20064;-78
2023/10/09 14:12:11;;;;;;;14.55;6.00;;;;;;;25.80;100.00;96636.81;6310434;22;20059;-78
2023/10/09 14:14:40;;;;;;;11.60;4.50;;;;;;;25.88;100.00;96633.88;6310384;22;20000;-78
2023/10/09 14:17:12;;;;;;;10.80;4.10;;;;;;;25.91;100.00;96640.69;6309826;22;20003;-78
2023/10/09 14:19:46;;;;;;;11.02;5.43;;;;;;;25.96;100.00;96635.47;6311205;22;20345;-78
2023/10/09 14:22:15;;;;;;;11.70;4.90;;;;;;;26.03;100.00;96628.19;6285734;22;20006;-78
2023/10/09 14:24:44;;;;;;;13.95;5.45;;;;;;;26.02;100.00;96620.31;6284577;22;20348;-77
2023/10/09 14:27:17;;;;;;;16.60;5.68;;;;;;;26.00;100.00;96625.09;6310508;22;19994;-78
2023/10/09 14:29:56;;;;;;;17.10;5.72;;;;;;;26.01;100.00;96621.34;6310841;22;19999;-78
2023/10/09 14:32:28;;;;;;;14.88;4.47;;;;;;;25.99;100.00;96618.88;6310496;22;19995;-78
2023/10/09 14:34:55;;;;;;;12.75;5.75;;;;;;;26.02;100.00;96621.13;6310080;22;20366;-78